Pagrindinis puslapis
METAR-TAF:

METAR-TAF

Oro uostai :

Stambulas Atatiurkas, Turkija

platuma: 40-58N, ilguma: 028-49E, Aukštis: 48 m

Dabartinis oras

Ataskaita buvo paskelbta 21 minutes, ne 22:20 UTC
Vėjas 3 kt iš Pietų/Pietryčių, svyruoja nuo Rytų/Pietryčių ir Pietų/Pietvakarių
Temperatūra 20°C
Drėgmė 64%
Slėgis 1013 hPa
Matomumas 10 km arba daugiau
nėra debesų žemiau 1500 m ir nėra kamuolinių lietaus debesų

METAR: LTBA 052220Z 16003KT 120V210 CAVOK 20/13 Q1013 NOSIG RMK RWY17 18004KT RWY05 19003KT 130V220 RWY23 22004KT

Laikas: 01:41 (22:41 UTC)

Prognozė

Ataskaita buvo paskelbta 6 valandos ir 1 minutes, ne 16:40 UTC
Prognozė galioja nuo 05 metu 18 UTC su 06 metu 24 UTC
Vėjas 8 kt iš Pietų
Matomumas 10 km arba daugiau
nėra debesų žemiau 1500 m ir nėra kamuolinių lietaus debesų

TAF: LTBA 051640Z 0518/0624 19008KT CAVOK

Orai ataskaitas ir orų prognozės (METAR, TAF).

turimą stotys yra geltonos ir raudonos taškus žemėlapyje.

Perkelti pele per norėdami pamatyti stoties vardą.

Tada spustelėkite, norėdami matyti oro stebėjimo ir prognozės.

Norėdami pakeisti žemėlapį: spustelėkite ant žalios mygtukų su juodo kryžiaus žemyn,; žalią mygtuką su brūkšneliu, jei norite nutolinti; arba žalių rodyklių gretimoms žemėlapius.


METAR-TAF: